sensor_id;sensor_type;location;lat;lon;timestamp;temperature;humidity
36002;DHT22;22070;50.922;5.430;2023-05-03T00:02:14;10.10;99.90
36002;DHT22;22070;50.922;5.430;2023-05-03T00:04:41;10.00;99.90
36002;DHT22;22070;50.922;5.430;2023-05-03T00:07:06;10.10;99.90
36002;DHT22;22070;50.922;5.430;2023-05-03T00:09:33;10.10;99.90
36002;DHT22;22070;50.922;5.430;2023-05-03T00:12:00;10.20;99.90
36002;DHT22;22070;50.922;5.430;2023-05-03T00:14:26;10.10;99.90
36002;DHT22;22070;50.922;5.430;2023-05-03T00:16:52;10.00;99.90
36002;DHT22;22070;50.922;5.430;2023-05-03T00:19:18;10.00;99.90
36002;DHT22;22070;50.922;5.430;2023-05-03T00:21:44;9.90;99.90
36002;DHT22;22070;50.922;5.430;2023-05-03T00:24:10;9.80;99.90
36002;DHT22;22070;50.922;5.430;2023-05-03T00:26:36;9.70;99.90
36002;DHT22;22070;50.922;5.430;2023-05-03T00:29:02;9.60;99.90
36002;DHT22;22070;50.922;5.430;2023-05-03T00:31:28;9.70;99.90
36002;DHT22;22070;50.922;5.430;2023-05-03T00:33:53;9.70;99.90
36002;DHT22;22070;50.922;5.430;2023-05-03T00:36:19;9.50;99.90
36002;DHT22;22070;50.922;5.430;2023-05-03T00:38:45;9.40;99.90
36002;DHT22;22070;50.922;5.430;2023-05-03T00:41:11;9.40;99.90
36002;DHT22;22070;50.922;5.430;2023-05-03T00:43:37;9.30;99.90
36002;DHT22;22070;50.922;5.430;2023-05-03T00:46:05;9.40;99.90
36002;DHT22;22070;50.922;5.430;2023-05-03T00:48:31;9.30;99.90
36002;DHT22;22070;50.922;5.430;2023-05-03T00:50:59;9.20;99.90
36002;DHT22;22070;50.922;5.430;2023-05-03T00:53:25;9.10;99.90
36002;DHT22;22070;50.922;5.430;2023-05-03T00:55:52;9.10;99.90
36002;DHT22;22070;50.922;5.430;2023-05-03T00:58:19;9.10;99.90
36002;DHT22;22070;50.922;5.430;2023-05-03T01:00:48;9.00;99.90
36002;DHT22;22070;50.922;5.430;2023-05-03T01:03:14;9.00;99.90
36002;DHT22;22070;50.922;5.430;2023-05-03T01:06:17;9.10;99.90
36002;DHT22;22070;50.922;5.430;2023-05-03T01:14:35;9.10;99.90
36002;DHT22;22070;50.922;5.430;2023-05-03T01:17:08;9.20;99.90
36002;DHT22;22070;50.922;5.430;2023-05-03T01:19:43;9.20;99.90
36002;DHT22;22070;50.922;5.430;2023-05-03T01:22:31;9.30;99.90
36002;DHT22;22070;50.922;5.430;2023-05-03T01:25:12;9.30;99.90
36002;DHT22;22070;50.922;5.430;2023-05-03T01:27:39;9.10;99.90
36002;DHT22;22070;50.922;5.430;2023-05-03T01:30:09;9.00;99.90
36002;DHT22;22070;50.922;5.430;2023-05-03T01:33:04;8.90;99.90
36002;DHT22;22070;50.922;5.430;2023-05-03T01:38:11;8.90;99.90
36002;DHT22;22070;50.922;5.430;2023-05-03T01:40:59;8.80;99.90
36002;DHT22;22070;50.922;5.430;2023-05-03T01:43:26;8.90;99.90
36002;DHT22;22070;50.922;5.430;2023-05-03T01:45:56;8.90;99.90
36002;DHT22;22070;50.922;5.430;2023-05-03T01:48:21;8.90;99.90
36002;DHT22;22070;50.922;5.430;2023-05-03T01:50:47;8.90;99.90
36002;DHT22;22070;50.922;5.430;2023-05-03T01:53:13;8.80;99.90
36002;DHT22;22070;50.922;5.430;2023-05-03T01:55:38;8.70;99.90
36002;DHT22;22070;50.922;5.430;2023-05-03T01:58:04;8.60;99.90
36002;DHT22;22070;50.922;5.430;2023-05-03T02:00:31;8.50;99.90
36002;DHT22;22070;50.922;5.430;2023-05-03T02:02:56;8.60;99.90
36002;DHT22;22070;50.922;5.430;2023-05-03T02:05:22;8.50;99.90
36002;DHT22;22070;50.922;5.430;2023-05-03T02:07:48;8.50;99.90
36002;DHT22;22070;50.922;5.430;2023-05-03T02:10:14;8.40;99.90
36002;DHT22;22070;50.922;5.430;2023-05-03T02:12:41;8.40;99.90
36002;DHT22;22070;50.922;5.430;2023-05-03T02:15:07;8.30;99.90
36002;DHT22;22070;50.922;5.430;2023-05-03T02:17:33;8.30;99.90
36002;DHT22;22070;50.922;5.430;2023-05-03T02:19:59;8.30;99.90
36002;DHT22;22070;50.922;5.430;2023-05-03T02:22:25;8.40;99.90
36002;DHT22;22070;50.922;5.430;2023-05-03T02:24:51;8.40;99.90
36002;DHT22;22070;50.922;5.430;2023-05-03T02:27:16;8.40;99.90
36002;DHT22;22070;50.922;5.430;2023-05-03T02:29:42;8.30;99.90
36002;DHT22;22070;50.922;5.430;2023-05-03T02:32:08;8.30;99.90
36002;DHT22;22070;50.922;5.430;2023-05-03T02:34:34;8.40;99.90
36002;DHT22;22070;50.922;5.430;2023-05-03T02:37:00;8.40;99.90
36002;DHT22;22070;50.922;5.430;2023-05-03T02:39:25;8.40;99.90
36002;DHT22;22070;50.922;5.430;2023-05-03T02:41:51;8.30;99.90
36002;DHT22;22070;50.922;5.430;2023-05-03T02:44:17;8.20;99.90
36002;DHT22;22070;50.922;5.430;2023-05-03T02:46:42;8.30;99.90
36002;DHT22;22070;50.922;5.430;2023-05-03T02:49:08;8.20;99.90
36002;DHT22;22070;50.922;5.430;2023-05-03T02:51:34;8.20;99.90
36002;DHT22;22070;50.922;5.430;2023-05-03T02:54:00;8.20;99.90
36002;DHT22;22070;50.922;5.430;2023-05-03T02:56:26;8.30;99.90
36002;DHT22;22070;50.922;5.430;2023-05-03T02:58:53;8.20;99.90
36002;DHT22;22070;50.922;5.430;2023-05-03T03:01:19;8.10;99.90
36002;DHT22;22070;50.922;5.430;2023-05-03T03:03:45;8.10;99.90
36002;DHT22;22070;50.922;5.430;2023-05-03T03:06:11;8.10;99.90
36002;DHT22;22070;50.922;5.430;2023-05-03T03:08:36;8.20;99.90
36002;DHT22;22070;50.922;5.430;2023-05-03T03:11:03;8.20;99.90
36002;DHT22;22070;50.922;5.430;2023-05-03T03:13:30;8.20;99.90
36002;DHT22;22070;50.922;5.430;2023-05-03T03:15:56;8.20;99.90
36002;DHT22;22070;50.922;5.430;2023-05-03T03:18:21;8.00;99.90
36002;DHT22;22070;50.922;5.430;2023-05-03T03:20:47;8.10;99.90
36002;DHT22;22070;50.922;5.430;2023-05-03T03:23:13;8.00;99.90
36002;DHT22;22070;50.922;5.430;2023-05-03T03:25:39;7.90;99.90
36002;DHT22;22070;50.922;5.430;2023-05-03T03:28:08;7.90;99.90
36002;DHT22;22070;50.922;5.430;2023-05-03T03:30:33;7.90;99.90
36002;DHT22;22070;50.922;5.430;2023-05-03T03:32:59;7.80;99.90
36002;DHT22;22070;50.922;5.430;2023-05-03T03:35:25;7.80;99.90
36002;DHT22;22070;50.922;5.430;2023-05-03T03:37:51;7.80;99.90
36002;DHT22;22070;50.922;5.430;2023-05-03T03:40:16;7.70;99.90
36002;DHT22;22070;50.922;5.430;2023-05-03T03:42:42;7.60;99.90
36002;DHT22;22070;50.922;5.430;2023-05-03T03:45:08;7.50;99.90
36002;DHT22;22070;50.922;5.430;2023-05-03T03:47:34;7.80;99.90
36002;DHT22;22070;50.922;5.430;2023-05-03T03:50:00;7.40;99.90
36002;DHT22;22070;50.922;5.430;2023-05-03T03:52:28;7.30;99.90
36002;DHT22;22070;50.922;5.430;2023-05-03T03:54:54;7.20;99.90
36002;DHT22;22070;50.922;5.430;2023-05-03T03:57:20;7.30;99.90
36002;DHT22;22070;50.922;5.430;2023-05-03T03:59:45;7.20;99.90
36002;DHT22;22070;50.922;5.430;2023-05-03T04:02:11;7.20;99.90
36002;DHT22;22070;50.922;5.430;2023-05-03T04:04:37;7.30;99.90
36002;DHT22;22070;50.922;5.430;2023-05-03T04:07:03;7.30;99.90
36002;DHT22;22070;50.922;5.430;2023-05-03T04:09:29;7.30;99.90
36002;DHT22;22070;50.922;5.430;2023-05-03T04:11:54;7.20;99.90
36002;DHT22;22070;50.922;5.430;2023-05-03T04:14:20;7.20;99.90
36002;DHT22;22070;50.922;5.430;2023-05-03T04:16:46;7.10;99.90
36002;DHT22;22070;50.922;5.430;2023-05-03T04:19:12;6.50;99.90
36002;DHT22;22070;50.922;5.430;2023-05-03T04:21:38;7.10;99.90
36002;DHT22;22070;50.922;5.430;2023-05-03T04:24:05;7.00;99.90
36002;DHT22;22070;50.922;5.430;2023-05-03T04:26:31;7.00;99.90
36002;DHT22;22070;50.922;5.430;2023-05-03T04:29:00;7.00;99.90
36002;DHT22;22070;50.922;5.430;2023-05-03T04:31:26;7.10;99.90
36002;DHT22;22070;50.922;5.430;2023-05-03T04:33:52;7.10;99.90
36002;DHT22;22070;50.922;5.430;2023-05-03T04:36:18;7.00;99.90
36002;DHT22;22070;50.922;5.430;2023-05-03T04:38:43;7.00;99.90
36002;DHT22;22070;50.922;5.430;2023-05-03T04:41:10;7.10;99.90
36002;DHT22;22070;50.922;5.430;2023-05-03T04:43:35;7.30;99.90
36002;DHT22;22070;50.922;5.430;2023-05-03T04:46:02;7.30;99.90
36002;DHT22;22070;50.922;5.430;2023-05-03T04:48:28;7.40;99.90
36002;DHT22;22070;50.922;5.430;2023-05-03T04:50:54;7.50;99.90
36002;DHT22;22070;50.922;5.430;2023-05-03T04:53:20;7.40;99.90
36002;DHT22;22070;50.922;5.430;2023-05-03T04:55:46;7.40;99.90
36002;DHT22;22070;50.922;5.430;2023-05-03T04:58:12;7.50;99.90
36002;DHT22;22070;50.922;5.430;2023-05-03T05:00:40;7.50;99.90
36002;DHT22;22070;50.922;5.430;2023-05-03T05:03:06;7.50;99.90
36002;DHT22;22070;50.922;5.430;2023-05-03T05:05:32;7.60;99.90
36002;DHT22;22070;50.922;5.430;2023-05-03T05:07:58;7.60;99.90
36002;DHT22;22070;50.922;5.430;2023-05-03T05:10:24;7.70;99.90
36002;DHT22;22070;50.922;5.430;2023-05-03T05:12:50;7.70;99.90
36002;DHT22;22070;50.922;5.430;2023-05-03T05:15:15;7.90;99.90
36002;DHT22;22070;50.922;5.430;2023-05-03T05:17:41;7.90;99.90
36002;DHT22;22070;50.922;5.430;2023-05-03T05:20:07;7.90;99.90
36002;DHT22;22070;50.922;5.430;2023-05-03T05:22:40;7.90;99.90
36002;DHT22;22070;50.922;5.430;2023-05-03T05:25:06;7.90;99.90
36002;DHT22;22070;50.922;5.430;2023-05-03T05:27:33;8.00;99.90
36002;DHT22;22070;50.922;5.430;2023-05-03T05:29:59;8.10;99.90
36002;DHT22;22070;50.922;5.430;2023-05-03T05:32:25;8.20;99.90
36002;DHT22;22070;50.922;5.430;2023-05-03T05:34:51;8.20;99.90
36002;DHT22;22070;50.922;5.430;2023-05-03T05:37:23;8.20;99.90
36002;DHT22;22070;50.922;5.430;2023-05-03T05:39:49;8.20;99.90
36002;DHT22;22070;50.922;5.430;2023-05-03T05:42:15;8.20;99.90
36002;DHT22;22070;50.922;5.430;2023-05-03T05:44:41;8.20;99.90
36002;DHT22;22070;50.922;5.430;2023-05-03T05:47:07;8.30;99.90
36002;DHT22;22070;50.922;5.430;2023-05-03T05:49:33;8.20;99.90
36002;DHT22;22070;50.922;5.430;2023-05-03T05:51:59;8.30;99.90
36002;DHT22;22070;50.922;5.430;2023-05-03T05:54:25;8.30;99.90
36002;DHT22;22070;50.922;5.430;2023-05-03T05:56:50;8.30;99.90
36002;DHT22;22070;50.922;5.430;2023-05-03T05:59:16;8.40;99.90
36002;DHT22;22070;50.922;5.430;2023-05-03T06:01:42;8.30;99.90
36002;DHT22;22070;50.922;5.430;2023-05-03T06:04:14;8.30;99.90
36002;DHT22;22070;50.922;5.430;2023-05-03T06:06:40;8.20;99.90
36002;DHT22;22070;50.922;5.430;2023-05-03T06:09:06;8.30;99.90
36002;DHT22;22070;50.922;5.430;2023-05-03T06:11:35;8.30;99.90
36002;DHT22;22070;50.922;5.430;2023-05-03T06:14:02;8.40;99.90
36002;DHT22;22070;50.922;5.430;2023-05-03T06:16:29;8.40;99.90
36002;DHT22;22070;50.922;5.430;2023-05-03T06:18:54;8.50;99.90
36002;DHT22;22070;50.922;5.430;2023-05-03T06:21:21;8.50;99.90
36002;DHT22;22070;50.922;5.430;2023-05-03T06:23:46;8.60;99.90
36002;DHT22;22070;50.922;5.430;2023-05-03T06:26:12;8.70;99.90
36002;DHT22;22070;50.922;5.430;2023-05-03T06:28:38;8.20;99.90
36002;DHT22;22070;50.922;5.430;2023-05-03T06:31:03;8.80;99.90
36002;DHT22;22070;50.922;5.430;2023-05-03T06:33:29;8.90;99.90
36002;DHT22;22070;50.922;5.430;2023-05-03T06:35:55;8.90;99.90
36002;DHT22;22070;50.922;5.430;2023-05-03T06:38:21;9.00;99.90
36002;DHT22;22070;50.922;5.430;2023-05-03T06:40:47;9.00;99.90
36002;DHT22;22070;50.922;5.430;2023-05-03T06:43:13;9.00;99.90
36002;DHT22;22070;50.922;5.430;2023-05-03T06:45:42;9.00;99.90
36002;DHT22;22070;50.922;5.430;2023-05-03T06:48:08;9.20;99.90
36002;DHT22;22070;50.922;5.430;2023-05-03T06:50:34;9.20;99.90
36002;DHT22;22070;50.922;5.430;2023-05-03T06:53:00;9.30;99.90
36002;DHT22;22070;50.922;5.430;2023-05-03T06:55:26;9.30;99.90
36002;DHT22;22070;50.922;5.430;2023-05-03T06:57:53;9.40;99.90
36002;DHT22;22070;50.922;5.430;2023-05-03T07:00:19;9.40;99.90
36002;DHT22;22070;50.922;5.430;2023-05-03T07:02:46;9.60;99.90
36002;DHT22;22070;50.922;5.430;2023-05-03T07:05:12;9.70;99.90
36002;DHT22;22070;50.922;5.430;2023-05-03T07:07:37;9.80;99.90
36002;DHT22;22070;50.922;5.430;2023-05-03T07:10:04;9.80;99.90
36002;DHT22;22070;50.922;5.430;2023-05-03T07:12:30;9.90;99.90
36002;DHT22;22070;50.922;5.430;2023-05-03T07:14:56;9.90;99.90
36002;DHT22;22070;50.922;5.430;2023-05-03T07:17:23;9.90;99.90
36002;DHT22;22070;50.922;5.430;2023-05-03T07:19:50;10.00;99.90
36002;DHT22;22070;50.922;5.430;2023-05-03T07:22:16;10.10;99.90
36002;DHT22;22070;50.922;5.430;2023-05-03T07:24:42;10.10;99.90
36002;DHT22;22070;50.922;5.430;2023-05-03T07:27:07;10.20;99.90
36002;DHT22;22070;50.922;5.430;2023-05-03T07:29:33;10.20;99.90
36002;DHT22;22070;50.922;5.430;2023-05-03T07:31:59;10.20;99.90
36002;DHT22;22070;50.922;5.430;2023-05-03T07:34:25;10.30;99.90
36002;DHT22;22070;50.922;5.430;2023-05-03T07:36:51;10.40;99.90
36002;DHT22;22070;50.922;5.430;2023-05-03T07:39:17;10.40;99.90
36002;DHT22;22070;50.922;5.430;2023-05-03T07:41:43;10.50;99.90
36002;DHT22;22070;50.922;5.430;2023-05-03T07:44:08;10.60;99.90
36002;DHT22;22070;50.922;5.430;2023-05-03T07:46:34;10.80;99.90
36002;DHT22;22070;50.922;5.430;2023-05-03T07:49:01;10.80;99.90
36002;DHT22;22070;50.922;5.430;2023-05-03T07:51:27;10.80;99.90
36002;DHT22;22070;50.922;5.430;2023-05-03T07:53:54;10.80;99.90
36002;DHT22;22070;50.922;5.430;2023-05-03T07:56:21;10.80;99.90
36002;DHT22;22070;50.922;5.430;2023-05-03T07:58:47;10.90;99.90
36002;DHT22;22070;50.922;5.430;2023-05-03T08:01:12;11.00;99.90
36002;DHT22;22070;50.922;5.430;2023-05-03T08:03:38;11.10;99.90
36002;DHT22;22070;50.922;5.430;2023-05-03T08:06:04;11.20;99.90
36002;DHT22;22070;50.922;5.430;2023-05-03T08:08:30;11.20;99.90
36002;DHT22;22070;50.922;5.430;2023-05-03T08:10:56;11.30;99.90
36002;DHT22;22070;50.922;5.430;2023-05-03T08:13:22;11.30;99.90
36002;DHT22;22070;50.922;5.430;2023-05-03T08:15:48;11.30;99.90
36002;DHT22;22070;50.922;5.430;2023-05-03T08:18:14;11.30;99.90
36002;DHT22;22070;50.922;5.430;2023-05-03T08:20:39;11.40;99.90
36002;DHT22;22070;50.922;5.430;2023-05-03T08:23:06;11.50;99.90
36002;DHT22;22070;50.922;5.430;2023-05-03T08:25:32;11.50;99.90
36002;DHT22;22070;50.922;5.430;2023-05-03T08:27:58;11.60;99.90
36002;DHT22;22070;50.922;5.430;2023-05-03T08:30:24;11.70;99.90
36002;DHT22;22070;50.922;5.430;2023-05-03T08:32:51;11.80;99.90
36002;DHT22;22070;50.922;5.430;2023-05-03T08:35:16;11.80;99.90
36002;DHT22;22070;50.922;5.430;2023-05-03T08:37:43;11.90;99.90
36002;DHT22;22070;50.922;5.430;2023-05-03T08:40:10;11.80;99.90
36002;DHT22;22070;50.922;5.430;2023-05-03T08:42:44;11.80;99.90
36002;DHT22;22070;50.922;5.430;2023-05-03T08:45:12;11.90;99.90
36002;DHT22;22070;50.922;5.430;2023-05-03T08:47:41;12.00;99.90
36002;DHT22;22070;50.922;5.430;2023-05-03T08:50:09;12.00;99.90
36002;DHT22;22070;50.922;5.430;2023-05-03T08:52:35;12.10;99.90
36002;DHT22;22070;50.922;5.430;2023-05-03T08:55:02;12.20;99.90
36002;DHT22;22070;50.922;5.430;2023-05-03T08:57:28;12.20;99.90
36002;DHT22;22070;50.922;5.430;2023-05-03T08:59:55;12.30;99.90
36002;DHT22;22070;50.922;5.430;2023-05-03T09:02:25;12.30;99.90
36002;DHT22;22070;50.922;5.430;2023-05-03T09:04:52;12.40;99.90
36002;DHT22;22070;50.922;5.430;2023-05-03T09:07:17;12.30;99.90
36002;DHT22;22070;50.922;5.430;2023-05-03T09:09:45;12.30;99.90
36002;DHT22;22070;50.922;5.430;2023-05-03T09:12:10;12.40;99.90
36002;DHT22;22070;50.922;5.430;2023-05-03T09:14:44;12.30;99.90
36002;DHT22;22070;50.922;5.430;2023-05-03T09:17:17;12.40;99.90
36002;DHT22;22070;50.922;5.430;2023-05-03T09:19:54;12.40;99.90
36002;DHT22;22070;50.922;5.430;2023-05-03T09:22:21;12.50;99.90
36002;DHT22;22070;50.922;5.430;2023-05-03T09:24:55;12.60;99.90
36002;DHT22;22070;50.922;5.430;2023-05-03T09:27:22;12.60;99.90
36002;DHT22;22070;50.922;5.430;2023-05-03T09:29:48;12.70;99.90
36002;DHT22;22070;50.922;5.430;2023-05-03T09:32:15;12.90;99.90
36002;DHT22;22070;50.922;5.430;2023-05-03T09:34:41;12.90;99.90
36002;DHT22;22070;50.922;5.430;2023-05-03T09:37:07;12.90;99.90
36002;DHT22;22070;50.922;5.430;2023-05-03T09:39:33;12.80;99.90
36002;DHT22;22070;50.922;5.430;2023-05-03T09:42:15;12.80;99.90
36002;DHT22;22070;50.922;5.430;2023-05-03T09:44:48;13.00;99.90
36002;DHT22;22070;50.922;5.430;2023-05-03T09:47:16;13.10;99.90
36002;DHT22;22070;50.922;5.430;2023-05-03T09:49:43;13.20;99.90
36002;DHT22;22070;50.922;5.430;2023-05-03T09:52:09;13.30;99.90
36002;DHT22;22070;50.922;5.430;2023-05-03T09:54:35;13.40;99.90
36002;DHT22;22070;50.922;5.430;2023-05-03T09:57:02;13.50;99.90
36002;DHT22;22070;50.922;5.430;2023-05-03T09:59:37;13.40;99.90
36002;DHT22;22070;50.922;5.430;2023-05-03T10:02:05;13.40;99.90
36002;DHT22;22070;50.922;5.430;2023-05-03T10:04:42;13.40;99.90
36002;DHT22;22070;50.922;5.430;2023-05-03T10:07:14;13.50;99.90
36002;DHT22;22070;50.922;5.430;2023-05-03T10:09:43;13.50;99.90
36002;DHT22;22070;50.922;5.430;2023-05-03T10:12:10;13.40;99.90
36002;DHT22;22070;50.922;5.430;2023-05-03T10:14:40;13.40;99.90
36002;DHT22;22070;50.922;5.430;2023-05-03T10:17:23;13.50;99.90
36002;DHT22;22070;50.922;5.430;2023-05-03T10:19:55;13.40;99.90
36002;DHT22;22070;50.922;5.430;2023-05-03T10:22:22;13.40;99.90
36002;DHT22;22070;50.922;5.430;2023-05-03T10:30:34;13.80;99.90
36002;DHT22;22070;50.922;5.430;2023-05-03T10:35:42;13.60;99.90
36002;DHT22;22070;50.922;5.430;2023-05-03T10:38:22;13.60;99.90
36002;DHT22;22070;50.922;5.430;2023-05-03T10:40:49;13.70;99.90
36002;DHT22;22070;50.922;5.430;2023-05-03T10:46:09;14.10;99.90
36002;DHT22;22070;50.922;5.430;2023-05-03T10:49:15;14.10;99.90
36002;DHT22;22070;50.922;5.430;2023-05-03T10:51:41;14.20;99.90
36002;DHT22;22070;50.922;5.430;2023-05-03T10:54:08;14.20;99.90
36002;DHT22;22070;50.922;5.430;2023-05-03T10:56:53;14.20;99.90
36002;DHT22;22070;50.922;5.430;2023-05-03T10:59:19;14.20;99.90
36002;DHT22;22070;50.922;5.430;2023-05-03T11:01:45;14.20;99.90
36002;DHT22;22070;50.922;5.430;2023-05-03T11:06:49;14.50;99.90
36002;DHT22;22070;50.922;5.430;2023-05-03T11:09:32;14.40;99.90
36002;DHT22;22070;50.922;5.430;2023-05-03T11:11:58;14.60;99.90
36002;DHT22;22070;50.922;5.430;2023-05-03T11:14:24;14.60;99.90
36002;DHT22;22070;50.922;5.430;2023-05-03T11:16:50;14.50;99.90
36002;DHT22;22070;50.922;5.430;2023-05-03T11:19:16;14.60;99.90
36002;DHT22;22070;50.922;5.430;2023-05-03T11:21:43;14.70;99.90
36002;DHT22;22070;50.922;5.430;2023-05-03T11:24:09;14.70;99.90
36002;DHT22;22070;50.922;5.430;2023-05-03T11:26:38;14.80;99.90
36002;DHT22;22070;50.922;5.430;2023-05-03T11:29:04;15.00;99.90
36002;DHT22;22070;50.922;5.430;2023-05-03T11:31:30;15.00;99.90
36002;DHT22;22070;50.922;5.430;2023-05-03T11:33:56;15.10;99.90
36002;DHT22;22070;50.922;5.430;2023-05-03T11:36:22;15.00;99.90
36002;DHT22;22070;50.922;5.430;2023-05-03T11:38:47;15.10;99.90
36002;DHT22;22070;50.922;5.430;2023-05-03T11:41:16;14.90;99.90
36002;DHT22;22070;50.922;5.430;2023-05-03T11:43:44;14.90;99.90
36002;DHT22;22070;50.922;5.430;2023-05-03T11:46:10;15.00;99.90
36002;DHT22;22070;50.922;5.430;2023-05-03T11:48:37;15.20;99.90
36002;DHT22;22070;50.922;5.430;2023-05-03T11:51:07;15.20;99.90
36002;DHT22;22070;50.922;5.430;2023-05-03T11:53:40;15.20;99.90
36002;DHT22;22070;50.922;5.430;2023-05-03T11:56:07;15.40;99.90
36002;DHT22;22070;50.922;5.430;2023-05-03T11:58:34;15.60;99.90
36002;DHT22;22070;50.922;5.430;2023-05-03T12:01:00;15.70;99.90
36002;DHT22;22070;50.922;5.430;2023-05-03T12:03:27;15.50;99.90
36002;DHT22;22070;50.922;5.430;2023-05-03T12:05:54;15.60;99.90
36002;DHT22;22070;50.922;5.430;2023-05-03T12:08:26;15.60;99.90
36002;DHT22;22070;50.922;5.430;2023-05-03T12:10:53;15.70;99.90
36002;DHT22;22070;50.922;5.430;2023-05-03T12:13:35;15.70;99.90
36002;DHT22;22070;50.922;5.430;2023-05-03T12:16:03;15.80;99.90
36002;DHT22;22070;50.922;5.430;2023-05-03T12:18:55;16.00;99.90
36002;DHT22;22070;50.922;5.430;2023-05-03T12:21:45;16.10;99.90
36002;DHT22;22070;50.922;5.430;2023-05-03T12:24:11;16.20;99.90
36002;DHT22;22070;50.922;5.430;2023-05-03T12:26:37;16.20;99.90
36002;DHT22;22070;50.922;5.430;2023-05-03T12:29:02;16.20;99.90
36002;DHT22;22070;50.922;5.430;2023-05-03T12:31:28;16.40;99.90
36002;DHT22;22070;50.922;5.430;2023-05-03T12:33:54;16.40;99.90
36002;DHT22;22070;50.922;5.430;2023-05-03T12:36:20;16.40;99.90
36002;DHT22;22070;50.922;5.430;2023-05-03T12:38:46;16.40;99.90
36002;DHT22;22070;50.922;5.430;2023-05-03T12:41:12;16.50;99.90
36002;DHT22;22070;50.922;5.430;2023-05-03T12:43:39;16.40;99.90
36002;DHT22;22070;50.922;5.430;2023-05-03T12:46:05;16.50;99.90
36002;DHT22;22070;50.922;5.430;2023-05-03T12:48:31;16.70;99.90
36002;DHT22;22070;50.922;5.430;2023-05-03T12:50:57;16.80;99.90
36002;DHT22;22070;50.922;5.430;2023-05-03T12:53:23;16.90;99.90
36002;DHT22;22070;50.922;5.430;2023-05-03T12:55:49;17.00;99.90
36002;DHT22;22070;50.922;5.430;2023-05-03T12:58:15;17.10;99.90
36002;DHT22;22070;50.922;5.430;2023-05-03T13:00:43;17.00;99.90
36002;DHT22;22070;50.922;5.430;2023-05-03T13:03:08;17.00;99.90
36002;DHT22;22070;50.922;5.430;2023-05-03T13:05:34;17.20;99.90
36002;DHT22;22070;50.922;5.430;2023-05-03T13:08:00;17.10;99.90
36002;DHT22;22070;50.922;5.430;2023-05-03T13:10:26;17.20;99.90
36002;DHT22;22070;50.922;5.430;2023-05-03T13:12:54;17.20;99.90
36002;DHT22;22070;50.922;5.430;2023-05-03T13:15:21;17.40;99.90
36002;DHT22;22070;50.922;5.430;2023-05-03T13:17:49;17.50;99.90
36002;DHT22;22070;50.922;5.430;2023-05-03T13:20:16;17.60;99.90
36002;DHT22;22070;50.922;5.430;2023-05-03T13:22:41;17.50;99.90
36002;DHT22;22070;50.922;5.430;2023-05-03T13:25:07;17.50;99.90
36002;DHT22;22070;50.922;5.430;2023-05-03T13:27:33;17.50;99.90
36002;DHT22;22070;50.922;5.430;2023-05-03T13:29:59;17.60;99.90
36002;DHT22;22070;50.922;5.430;2023-05-03T13:32:26;17.70;99.90
36002;DHT22;22070;50.922;5.430;2023-05-03T13:34:52;17.90;99.90
36002;DHT22;22070;50.922;5.430;2023-05-03T13:37:18;17.90;99.90
36002;DHT22;22070;50.922;5.430;2023-05-03T13:39:44;18.00;99.90
36002;DHT22;22070;50.922;5.430;2023-05-03T13:42:10;18.20;99.90
36002;DHT22;22070;50.922;5.430;2023-05-03T13:44:36;18.20;99.90
36002;DHT22;22070;50.922;5.430;2023-05-03T13:47:01;18.10;99.90
36002;DHT22;22070;50.922;5.430;2023-05-03T13:49:27;17.90;99.90
36002;DHT22;22070;50.922;5.430;2023-05-03T13:51:53;17.90;99.90
36002;DHT22;22070;50.922;5.430;2023-05-03T13:54:19;18.10;99.90
36002;DHT22;22070;50.922;5.430;2023-05-03T13:56:45;18.10;99.90
36002;DHT22;22070;50.922;5.430;2023-05-03T13:59:12;18.10;99.90
36002;DHT22;22070;50.922;5.430;2023-05-03T14:01:38;18.30;99.90
36002;DHT22;22070;50.922;5.430;2023-05-03T14:04:04;18.40;99.90
36002;DHT22;22070;50.922;5.430;2023-05-03T14:06:30;18.50;99.90
36002;DHT22;22070;50.922;5.430;2023-05-03T14:08:56;18.60;99.90
36002;DHT22;22070;50.922;5.430;2023-05-03T14:11:23;18.70;99.90
36002;DHT22;22070;50.922;5.430;2023-05-03T14:13:52;18.70;99.90
36002;DHT22;22070;50.922;5.430;2023-05-03T14:16:19;18.70;99.90
36002;DHT22;22070;50.922;5.430;2023-05-03T14:18:47;18.80;99.90
36002;DHT22;22070;50.922;5.430;2023-05-03T14:21:12;18.90;99.90
36002;DHT22;22070;50.922;5.430;2023-05-03T14:23:39;19.00;99.90
36002;DHT22;22070;50.922;5.430;2023-05-03T14:26:05;19.10;99.90
36002;DHT22;22070;50.922;5.430;2023-05-03T14:28:31;19.20;99.90
36002;DHT22;22070;50.922;5.430;2023-05-03T14:30:57;19.20;99.90
36002;DHT22;22070;50.922;5.430;2023-05-03T14:33:23;19.20;99.90
36002;DHT22;22070;50.922;5.430;2023-05-03T14:35:48;19.40;99.90
36002;DHT22;22070;50.922;5.430;2023-05-03T14:38:14;19.50;99.90
36002;DHT22;22070;50.922;5.430;2023-05-03T14:40:41;19.80;99.90
36002;DHT22;22070;50.922;5.430;2023-05-03T14:43:07;19.70;99.90
36002;DHT22;22070;50.922;5.430;2023-05-03T14:45:34;20.00;99.90
36002;DHT22;22070;50.922;5.430;2023-05-03T14:48:01;20.10;99.90
36002;DHT22;22070;50.922;5.430;2023-05-03T14:50:27;20.10;99.90
36002;DHT22;22070;50.922;5.430;2023-05-03T14:52:52;20.20;99.90
36002;DHT22;22070;50.922;5.430;2023-05-03T14:55:18;20.20;99.90
36002;DHT22;22070;50.922;5.430;2023-05-03T14:57:43;20.20;99.90
36002;DHT22;22070;50.922;5.430;2023-05-03T15:00:10;20.50;99.90
36002;DHT22;22070;50.922;5.430;2023-05-03T15:02:40;20.60;99.90
36002;DHT22;22070;50.922;5.430;2023-05-03T15:05:06;20.50;99.90
36002;DHT22;22070;50.922;5.430;2023-05-03T15:07:32;20.50;99.80
36002;DHT22;22070;50.922;5.430;2023-05-03T15:10:00;20.40;99.80
36002;DHT22;22070;50.922;5.430;2023-05-03T15:12:28;20.30;98.90
36002;DHT22;22070;50.922;5.430;2023-05-03T15:14:54;20.30;99.70
36002;DHT22;22070;50.922;5.430;2023-05-03T15:17:20;20.30;99.80
36002;DHT22;22070;50.922;5.430;2023-05-03T15:19:47;20.50;99.90
36002;DHT22;22070;50.922;5.430;2023-05-03T15:22:13;20.70;99.50
36002;DHT22;22070;50.922;5.430;2023-05-03T15:24:38;20.60;99.70
36002;DHT22;22070;50.922;5.430;2023-05-03T15:27:04;20.80;99.20
36002;DHT22;22070;50.922;5.430;2023-05-03T15:29:30;20.90;98.90
36002;DHT22;22070;50.922;5.430;2023-05-03T15:31:56;20.90;99.20
36002;DHT22;22070;50.922;5.430;2023-05-03T15:34:21;21.00;99.50
36002;DHT22;22070;50.922;5.430;2023-05-03T15:36:47;21.20;99.90
36002;DHT22;22070;50.922;5.430;2023-05-03T15:39:13;21.30;99.30
36002;DHT22;22070;50.922;5.430;2023-05-03T15:41:38;21.40;99.00
36002;DHT22;22070;50.922;5.430;2023-05-03T15:44:04;21.40;98.20
36002;DHT22;22070;50.922;5.430;2023-05-03T15:46:33;21.20;98.60
36002;DHT22;22070;50.922;5.430;2023-05-03T15:48:58;21.20;98.90
36002;DHT22;22070;50.922;5.430;2023-05-03T15:51:24;21.40;98.40
36002;DHT22;22070;50.922;5.430;2023-05-03T15:53:52;21.60;98.80
36002;DHT22;22070;50.922;5.430;2023-05-03T15:56:18;21.80;98.90
36002;DHT22;22070;50.922;5.430;2023-05-03T15:58:44;21.70;98.40
36002;DHT22;22070;50.922;5.430;2023-05-03T16:01:10;21.30;97.70